Time;durP1;ratioP1;P1;durP2;ratioP2;P2;SDS_P1;SDS_P2;PMS_P1;PMS_P2;Temp;Humidity;BMP_temperature;BMP_pressure;BME280_temperature;BME280_humidity;BME280_pressure;Samples;Min_cycle;Max_cycle;Signal;HPM_P1;HPM_P2
2022/10/19 00:00:24;;;;;;;11.88;1.85;;;10.30;99.90;;;;;;6271045;22;20039;-83
2022/10/19 00:02:50;;;;;;;6.18;1.38;;;10.20;99.90;;;;;;6244889;22;20332;-83
2022/10/19 00:05:16;;;;;;;3.30;1.20;;;10.40;99.90;;;;;;6271584;22;20019;-82
2022/10/19 00:07:42;;;;;;;7.53;1.55;;;10.40;99.90;;;;;;6271365;22;20095;-82
2022/10/19 00:10:08;;;;;;;6.53;1.60;;;10.50;99.90;;;;;;6244430;22;20015;-82
2022/10/19 00:12:34;;;;;;;6.70;1.45;;;10.50;99.90;;;;;;6270700;22;20057;-83
2022/10/19 00:14:59;;;;;;;6.93;1.58;;;10.70;99.90;;;;;;6270649;22;20019;-83
2022/10/19 00:17:25;;;;;;;7.10;1.33;;;10.50;99.90;;;;;;6244441;22;20016;-83
2022/10/19 00:19:50;;;;;;;6.75;1.45;;;10.60;99.90;;;;;;6271745;22;20043;-82
2022/10/19 00:22:16;;;;;;;7.70;1.73;;;10.50;99.90;;;;;;6271529;22;20351;-82
2022/10/19 00:24:42;;;;;;;5.60;2.00;;;10.60;99.90;;;;;;6271839;22;20358;-82
2022/10/19 00:27:08;;;;;;;8.18;2.00;;;10.60;99.90;;;;;;6270905;22;20466;-82
2022/10/19 00:29:33;;;;;;;7.20;1.38;;;10.60;99.90;;;;;;6243694;22;20015;-83
2022/10/19 00:31:59;;;;;;;8.88;1.85;;;10.60;99.90;;;;;;6271676;22;20088;-82
2022/10/19 00:34:24;;;;;;;10.55;1.80;;;10.60;99.90;;;;;;6244259;22;20019;-82
2022/10/19 00:36:50;;;;;;;7.47;1.52;;;10.60;99.90;;;;;;6246096;22;20027;-83
2022/10/19 00:39:17;;;;;;;10.90;1.73;;;10.60;99.90;;;;;;6246311;22;20012;-83
2022/10/19 00:41:45;;;;;;;11.80;3.63;;;10.70;99.90;;;;;;6245181;22;20047;-82
2022/10/19 00:44:10;;;;;;;8.05;2.20;;;10.70;99.90;;;;;;6246170;22;20475;-83
2022/10/19 00:46:38;;;;;;;4.88;1.33;;;10.70;99.90;;;;;;6272568;22;20066;-82
2022/10/19 00:49:09;;;;;;;10.15;1.77;;;10.70;99.90;;;;;;6221287;22;20023;-83
2022/10/19 00:51:38;;;;;;;11.05;2.08;;;10.70;99.90;;;;;;6273322;22;20007;-81
2022/10/19 00:54:05;;;;;;;8.10;1.45;;;10.70;99.90;;;;;;6246136;22;20026;-81
2022/10/19 00:56:32;;;;;;;7.32;2.10;;;10.70;99.90;;;;;;6219203;22;20356;-81
2022/10/19 00:58:57;;;;;;;9.65;1.63;;;10.70;99.90;;;;;;6273797;22;20007;-82
2022/10/19 01:01:26;;;;;;;11.68;1.70;;;10.70;99.90;;;;;;6273036;22;20015;-82
2022/10/19 01:03:51;;;;;;;9.43;2.22;;;10.70;99.90;;;;;;6245921;22;20087;-81
2022/10/19 01:06:19;;;;;;;9.02;1.60;;;10.80;99.90;;;;;;6246326;22;20213;-81
2022/10/19 01:08:45;;;;;;;9.70;1.80;;;10.80;99.90;;;;;;6273499;22;20073;-83
2022/10/19 01:12:12;;;;;;;7.40;1.70;;;10.80;99.90;;;;;;6245521;22;20011;-82
2022/10/19 01:14:52;;;;;;;6.03;1.40;;;10.80;99.90;;;;;;6071451;23;20018;-82
2022/10/19 01:17:29;;;;;;;12.13;1.35;;;10.80;99.90;;;;;;6095057;23;20048;-81
2022/10/19 01:20:22;;;;;;;8.68;2.33;;;10.80;99.90;;;;;;6095348;23;20093;-82
2022/10/19 01:23:28;;;;;;;6.07;1.38;;;10.90;99.90;;;;;;6095208;23;20021;-82
2022/10/19 01:26:06;;;;;;;5.63;1.42;;;10.90;99.90;;;;;;6118743;23;20213;-82
2022/10/19 01:28:55;;;;;;;7.50;1.42;;;10.80;99.90;;;;;;6118896;23;20010;-82
2022/10/19 01:31:41;;;;;;;6.35;1.55;;;10.90;99.90;;;;;;6094928;23;20470;-81
2022/10/19 01:34:25;;;;;;;5.72;1.38;;;11.00;99.90;;;;;;6095463;23;20024;-82
2022/10/19 01:37:07;;;;;;;7.45;1.65;;;11.00;99.90;;;;;;6120175;23;20033;-81
2022/10/19 01:39:48;;;;;;;5.97;1.63;;;11.00;99.90;;;;;;6119818;23;20062;-81
2022/10/19 01:42:38;;;;;;;9.85;2.22;;;11.00;99.90;;;;;;6119239;23;20147;-81
2022/10/19 01:45:27;;;;;;;8.05;1.77;;;11.00;99.90;;;;;;6094890;23;20017;-82
2022/10/19 01:48:16;;;;;;;4.80;1.30;;;11.00;99.90;;;;;;6094674;23;20029;-82
2022/10/19 01:50:53;;;;;;;9.65;1.48;;;11.00;99.90;;;;;;6207471;22;20016;-81
2022/10/19 01:53:20;;;;;;;5.40;1.40;;;11.00;99.90;;;;;;6245159;22;20023;-81
2022/10/19 01:55:49;;;;;;;4.53;1.02;;;11.00;99.90;;;;;;6272331;22;20046;-81
2022/10/19 01:58:19;;;;;;;4.63;1.20;;;11.10;99.90;;;;;;6272376;22;20111;-82
2022/10/19 02:00:47;;;;;;;6.80;1.35;;;11.00;99.90;;;;;;6272939;22;20046;-82
2022/10/19 02:03:13;;;;;;;5.07;1.13;;;11.00;99.90;;;;;;6245801;22;20020;-81
2022/10/19 02:05:40;;;;;;;6.53;1.48;;;11.00;99.90;;;;;;6273038;22;20560;-82
2022/10/19 02:08:29;;;;;;;12.13;1.20;;;11.10;99.90;;;;;;6272657;22;20039;-82
2022/10/19 02:10:56;;;;;;;8.95;1.27;;;11.00;99.90;;;;;;6270547;22;20034;-82
2022/10/19 02:13:25;;;;;;;8.35;1.50;;;11.00;99.90;;;;;;6245076;22;20012;-82
2022/10/19 02:15:55;;;;;;;4.40;1.00;;;11.00;99.90;;;;;;6245135;22;20019;-82
2022/10/19 02:18:33;;;;;;;6.47;1.38;;;11.00;99.90;;;;;;6273007;22;20335;-82
2022/10/19 02:21:02;;;;;;;6.55;1.10;;;11.10;99.90;;;;;;6245410;22;20023;-82
2022/10/19 02:23:28;;;;;;;11.52;1.17;;;11.00;99.90;;;;;;6271943;22;20436;-82
2022/10/19 02:25:54;;;;;;;7.43;1.23;;;11.20;99.90;;;;;;6245574;22;20018;-82
2022/10/19 02:28:21;;;;;;;5.90;1.17;;;11.10;99.90;;;;;;6272170;22;20066;-82
2022/10/19 02:30:47;;;;;;;8.05;1.10;;;11.10;99.90;;;;;;6272118;22;20012;-79
2022/10/19 02:33:13;;;;;;;6.35;1.08;;;11.00;99.90;;;;;;6272871;22;20277;-81
2022/10/19 02:35:39;;;;;;;5.55;1.30;;;11.10;99.90;;;;;;6272235;22;20069;-82
2022/10/19 02:38:09;;;;;;;8.25;1.50;;;11.10;99.90;;;;;;6271910;22;20157;-82
2022/10/19 02:40:38;;;;;;;6.55;1.05;;;11.10;99.90;;;;;;6272459;22;20113;-82
2022/10/19 02:43:09;;;;;;;3.70;0.93;;;11.10;99.90;;;;;;6272613;22;20012;-82
2022/10/19 02:45:41;;;;;;;4.85;0.80;;;11.20;99.90;;;;;;6272422;22;20065;-82
2022/10/19 02:48:12;;;;;;;3.15;0.70;;;11.10;99.90;;;;;;6272208;22;20023;-82
2022/10/19 02:50:43;;;;;;;7.25;1.25;;;11.00;99.90;;;;;;6245389;22;20019;-82
2022/10/19 02:53:08;;;;;;;5.38;0.80;;;11.00;99.90;;;;;;6244661;22;20023;-82
2022/10/19 02:55:34;;;;;;;6.85;0.82;;;11.00;99.90;;;;;;6244722;22;20012;-82
2022/10/19 02:58:00;;;;;;;5.55;1.08;;;10.90;99.90;;;;;;6244635;22;20157;-82
2022/10/19 03:00:25;;;;;;;5.90;0.80;;;10.90;99.90;;;;;;6272310;22;20328;-82
2022/10/19 03:02:51;;;;;;;6.65;1.25;;;10.90;99.90;;;;;;6244958;22;20069;-82
2022/10/19 03:05:17;;;;;;;8.45;0.90;;;10.80;99.90;;;;;;6273014;22;20008;-82
2022/10/19 03:07:42;;;;;;;7.15;1.23;;;10.70;99.90;;;;;;6271174;22;20011;-82
2022/10/19 03:10:08;;;;;;;5.28;1.20;;;10.70;99.90;;;;;;6244629;22;20379;-82
2022/10/19 03:12:34;;;;;;;4.75;0.90;;;10.60;99.90;;;;;;6272265;22;20011;-82
2022/10/19 03:14:59;;;;;;;6.13;0.98;;;10.60;99.90;;;;;;6244764;22;20023;-82
2022/10/19 03:17:25;;;;;;;7.68;1.25;;;10.40;99.90;;;;;;6244738;22;20335;-82
2022/10/19 03:19:51;;;;;;;4.20;1.00;;;10.40;99.90;;;;;;6272601;22;20004;-82
2022/10/19 03:22:17;;;;;;;7.57;1.02;;;10.40;99.90;;;;;;6271205;22;20011;-82
2022/10/19 03:24:42;;;;;;;4.18;0.90;;;10.30;99.90;;;;;;6244508;22;20430;-82
2022/10/19 03:27:08;;;;;;;4.40;0.85;;;10.20;99.90;;;;;;6244588;22;20459;-82
2022/10/19 03:29:33;;;;;;;7.00;0.90;;;10.10;99.90;;;;;;6271757;22;20011;-82
2022/10/19 03:31:59;;;;;;;6.72;1.08;;;10.10;99.90;;;;;;6244891;22;20031;-82
2022/10/19 03:34:25;;;;;;;9.45;1.70;;;10.00;99.90;;;;;;6271614;22;20091;-82
2022/10/19 03:36:50;;;;;;;4.18;0.70;;;9.90;99.90;;;;;;6271636;22;20336;-82
2022/10/19 03:39:16;;;;;;;5.57;0.80;;;9.90;99.90;;;;;;6244909;22;20008;-82
2022/10/19 03:41:42;;;;;;;4.60;0.98;;;9.80;99.90;;;;;;6271957;22;20027;-82
2022/10/19 03:44:10;;;;;;;6.75;1.13;;;9.70;99.90;;;;;;6244560;22;20016;-82
2022/10/19 03:46:36;;;;;;;6.05;1.02;;;9.60;99.90;;;;;;6272815;22;20372;-82
2022/10/19 03:49:02;;;;;;;6.97;0.85;;;9.50;99.90;;;;;;6271898;22;20026;-82
2022/10/19 03:51:29;;;;;;;6.30;0.90;;;9.50;99.90;;;;;;6243514;22;20008;-82
2022/10/19 03:54:06;;;;;;;6.63;0.90;;;9.50;99.90;;;;;;6272604;22;20023;-82
2022/10/19 03:56:34;;;;;;;4.47;0.90;;;9.50;99.90;;;;;;6272225;22;20083;-82
2022/10/19 03:59:01;;;;;;;6.72;1.30;;;9.50;99.90;;;;;;6244069;22;20068;-82
2022/10/19 04:01:29;;;;;;;4.10;0.90;;;9.50;99.90;;;;;;6244330;22;20039;-82
2022/10/19 04:03:57;;;;;;;3.58;0.90;;;9.50;99.90;;;;;;6219322;22;20352;-82
2022/10/19 04:06:28;;;;;;;5.82;2.05;;;9.50;99.90;;;;;;6218443;22;20028;-82
2022/10/19 04:08:54;;;;;;;7.82;1.35;;;9.60;99.90;;;;;;6244128;22;20038;-82
2022/10/19 04:11:23;;;;;;;6.85;1.23;;;9.60;99.90;;;;;;6244638;22;20024;-82
2022/10/19 04:13:52;;;;;;;7.15;1.23;;;9.60;99.90;;;;;;6271330;22;20015;-82
2022/10/19 04:16:19;;;;;;;6.55;1.42;;;9.60;99.90;;;;;;6244229;22;20039;-82
2022/10/19 04:18:49;;;;;;;10.15;1.40;;;9.70;99.90;;;;;;6218951;22;20015;-82
2022/10/19 04:21:36;;;;;;;5.32;1.02;;;9.70;99.90;;;;;;6243510;22;20020;-82
2022/10/19 04:24:08;;;;;;;7.28;1.20;;;9.70;99.90;;;;;;6244824;22;20076;-82
2022/10/19 04:26:39;;;;;;;7.15;1.10;;;9.70;99.90;;;;;;6271521;22;20112;-82
2022/10/19 04:29:05;;;;;;;5.47;0.90;;;9.70;99.90;;;;;;6218734;22;20026;-82
2022/10/19 04:31:30;;;;;;;4.90;0.82;;;9.70;99.90;;;;;;6244164;22;20011;-82
2022/10/19 04:33:56;;;;;;;11.20;1.73;;;9.70;99.90;;;;;;6270684;22;20478;-82
2022/10/19 04:36:22;;;;;;;8.30;1.30;;;9.70;99.90;;;;;;6238972;23;20016;-82
2022/10/19 04:38:48;;;;;;;8.68;1.20;;;9.70;99.90;;;;;;6239093;23;20008;-82
2022/10/19 04:41:17;;;;;;;7.78;1.40;;;9.70;99.90;;;;;;6238710;23;20013;-82
2022/10/19 04:43:44;;;;;;;8.30;1.00;;;9.70;99.90;;;;;;6239236;23;20023;-82
2022/10/19 04:46:18;;;;;;;7.03;1.02;;;9.60;99.90;;;;;;6239172;23;20059;-82
2022/10/19 04:48:45;;;;;;;8.82;1.40;;;9.60;99.90;;;;;;6238762;23;20152;-83
2022/10/19 04:51:11;;;;;;;10.50;1.20;;;9.60;99.90;;;;;;6239762;23;20027;-82
2022/10/19 04:53:38;;;;;;;11.32;1.25;;;9.60;99.90;;;;;;6240680;22;20012;-82
2022/10/19 04:56:11;;;;;;;11.02;1.27;;;9.60;99.90;;;;;;6240872;22;20004;-82
2022/10/19 04:58:36;;;;;;;10.80;1.08;;;9.60;99.90;;;;;;6238751;23;20093;-82
2022/10/19 05:01:17;;;;;;;8.10;0.90;;;9.60;99.90;;;;;;6239129;23;20429;-82
2022/10/19 05:03:42;;;;;;;7.72;1.15;;;9.60;99.90;;;;;;6237680;23;20404;-82
2022/10/19 05:06:09;;;;;;;7.40;1.40;;;9.70;99.90;;;;;;6240839;22;20051;-82
2022/10/19 05:08:36;;;;;;;10.02;1.70;;;9.70;99.90;;;;;;6240648;22;20761;-81
2022/10/19 05:11:03;;;;;;;10.57;1.00;;;9.70;99.90;;;;;;6239050;23;20020;-82
2022/10/19 05:13:31;;;;;;;7.95;1.50;;;9.70;99.90;;;;;;6239455;23;20016;-82
2022/10/19 05:15:58;;;;;;;8.90;1.67;;;9.70;99.90;;;;;;6238532;23;20020;-82
2022/10/19 05:18:24;;;;;;;7.55;1.15;;;9.70;99.90;;;;;;6238159;23;20424;-82
2022/10/19 05:20:49;;;;;;;10.43;1.52;;;9.70;99.90;;;;;;6264975;22;20016;-82
2022/10/19 05:23:15;;;;;;;9.90;1.40;;;9.70;99.90;;;;;;6240466;23;20047;-82
2022/10/19 05:25:41;;;;;;;10.57;1.35;;;9.80;99.90;;;;;;6242907;23;20012;-82
2022/10/19 05:28:06;;;;;;;8.88;1.30;;;9.80;99.90;;;;;;6243586;23;20008;-83
2022/10/19 05:30:32;;;;;;;10.98;1.52;;;9.80;99.90;;;;;;6240813;23;20296;-82
2022/10/19 05:32:57;;;;;;;15.10;1.83;;;9.80;99.90;;;;;;6241941;23;20018;-83
2022/10/19 05:35:23;;;;;;;7.05;1.00;;;9.80;99.90;;;;;;6239562;23;20095;-83
2022/10/19 05:37:54;;;;;;;7.03;1.05;;;9.90;99.90;;;;;;6240248;23;20039;-82
2022/10/19 05:40:19;;;;;;;9.38;1.05;;;9.90;99.90;;;;;;6240773;23;20043;-81
2022/10/19 05:42:45;;;;;;;6.75;1.27;;;9.90;99.90;;;;;;6240116;23;20336;-81
2022/10/19 05:45:11;;;;;;;9.07;1.50;;;9.90;99.90;;;;;;6240313;23;20012;-82
2022/10/19 05:47:36;;;;;;;7.88;1.30;;;9.90;99.90;;;;;;6239863;23;20083;-82
2022/10/19 05:50:02;;;;;;;8.63;1.40;;;10.00;99.90;;;;;;6240297;23;20089;-82
2022/10/19 05:52:28;;;;;;;8.18;1.17;;;10.00;99.90;;;;;;6242415;22;20062;-82
2022/10/19 05:54:54;;;;;;;8.10;1.48;;;10.00;99.90;;;;;;6240348;23;20052;-82
2022/10/19 05:57:20;;;;;;;10.70;2.20;;;10.00;99.90;;;;;;6240650;23;20016;-82
2022/10/19 05:59:45;;;;;;;11.70;1.85;;;10.00;99.90;;;;;;6239935;23;20077;-81
2022/10/19 06:02:13;;;;;;;9.25;1.42;;;10.00;99.90;;;;;;6238374;23;20494;-82
2022/10/19 06:04:38;;;;;;;8.95;1.40;;;10.10;99.90;;;;;;6240282;23;20387;-82
2022/10/19 06:07:04;;;;;;;12.85;1.50;;;10.00;99.90;;;;;;6213131;23;20028;-82
2022/10/19 06:09:34;;;;;;;10.55;1.30;;;10.00;99.90;;;;;;6242520;22;20014;-82
2022/10/19 06:12:01;;;;;;;9.60;1.20;;;10.00;99.90;;;;;;6241971;22;20436;-82
2022/10/19 06:14:26;;;;;;;9.32;1.75;;;10.10;99.90;;;;;;6240570;23;20043;-83
2022/10/19 06:16:52;;;;;;;13.68;2.40;;;10.10;99.90;;;;;;6239995;23;20020;-82
2022/10/19 06:19:17;;;;;;;13.98;2.38;;;10.10;99.90;;;;;;6239804;23;20062;-82
2022/10/19 06:21:44;;;;;;;11.77;1.38;;;10.10;99.90;;;;;;6215169;23;20020;-82
2022/10/19 06:24:10;;;;;;;9.57;1.55;;;10.20;99.90;;;;;;6241114;23;20047;-82
2022/10/19 06:26:36;;;;;;;11.00;2.10;;;10.20;99.90;;;;;;6239666;23;20022;-82
2022/10/19 06:29:04;;;;;;;9.73;1.45;;;10.20;99.90;;;;;;6240400;23;20047;-83
2022/10/19 06:31:33;;;;;;;5.30;1.38;;;10.20;99.90;;;;;;6239299;23;20554;-82
2022/10/19 06:33:59;;;;;;;13.10;1.92;;;10.30;99.90;;;;;;6214042;23;20026;-82
2022/10/19 06:36:28;;;;;;;8.45;1.73;;;10.30;99.90;;;;;;6267246;22;20020;-82
2022/10/19 06:38:55;;;;;;;8.80;1.10;;;10.30;99.90;;;;;;6244285;22;20019;-83
2022/10/19 06:41:21;;;;;;;9.45;2.13;;;10.40;99.90;;;;;;6270543;22;20020;-83
2022/10/19 06:43:50;;;;;;;7.65;1.48;;;10.40;99.90;;;;;;6271301;22;20505;-82
2022/10/19 06:46:19;;;;;;;9.98;1.17;;;10.40;99.90;;;;;;6243946;22;20378;-85
2022/10/19 06:48:53;;;;;;;11.93;1.77;;;10.50;99.90;;;;;;6217738;22;20020;-82
2022/10/19 06:51:19;;;;;;;9.50;1.10;;;10.50;99.90;;;;;;6271220;22;20015;-82
2022/10/19 06:53:44;;;;;;;7.40;1.20;;;10.50;99.90;;;;;;6244125;22;20020;-82
2022/10/19 06:56:10;;;;;;;12.73;1.02;;;10.50;99.90;;;;;;6243578;22;20012;-83
2022/10/19 06:58:36;;;;;;;12.95;2.03;;;10.60;99.90;;;;;;6243055;22;20043;-83
2022/10/19 07:01:06;;;;;;;8.68;1.30;;;10.60;99.90;;;;;;6271118;22;20008;-84
2022/10/19 07:03:32;;;;;;;11.38;1.27;;;10.60;99.90;;;;;;6244099;22;20015;-84
2022/10/19 07:05:59;;;;;;;10.60;1.33;;;10.60;99.90;;;;;;6270937;22;20031;-84
2022/10/19 07:08:27;;;;;;;9.55;1.17;;;10.60;99.90;;;;;;6270792;22;20425;-84
2022/10/19 07:10:56;;;;;;;9.05;2.00;;;10.60;99.90;;;;;;6271717;22;20015;-84
2022/10/19 07:13:21;;;;;;;11.05;1.67;;;10.70;99.90;;;;;;6242692;22;20019;-83
2022/10/19 07:15:48;;;;;;;7.45;1.08;;;10.70;99.90;;;;;;6243874;22;20024;-84
2022/10/19 07:18:14;;;;;;;10.20;1.33;;;10.70;99.90;;;;;;6270147;22;20326;-82
2022/10/19 07:20:40;;;;;;;14.52;1.95;;;10.80;99.90;;;;;;6271502;22;20133;-82
2022/10/19 07:23:06;;;;;;;11.55;1.20;;;10.80;99.90;;;;;;6271426;22;20451;-82
2022/10/19 07:25:32;;;;;;;11.32;2.47;;;10.80;99.90;;;;;;6243718;22;20065;-82
2022/10/19 07:27:58;;;;;;;9.35;1.33;;;10.90;99.90;;;;;;6270953;22;20358;-82
2022/10/19 07:30:24;;;;;;;10.52;1.20;;;11.00;99.90;;;;;;6271163;22;20430;-82
2022/10/19 07:32:49;;;;;;;12.20;1.25;;;11.00;99.90;;;;;;6271287;22;20090;-82
2022/10/19 07:35:15;;;;;;;10.00;1.45;;;11.00;99.90;;;;;;6271547;22;20038;-82
2022/10/19 07:37:41;;;;;;;10.93;1.00;;;11.10;99.90;;;;;;6244854;22;20042;-82
2022/10/19 07:40:07;;;;;;;5.40;1.10;;;11.10;99.90;;;;;;6272121;22;20436;-82
2022/10/19 07:42:36;;;;;;;12.88;1.92;;;11.20;99.90;;;;;;6270293;22;20016;-82
2022/10/19 07:45:02;;;;;;;8.93;1.25;;;11.20;99.90;;;;;;6244064;22;20011;-83
2022/10/19 07:47:28;;;;;;;8.77;1.13;;;11.30;99.90;;;;;;6270078;22;20062;-83
2022/10/19 07:49:53;;;;;;;8.25;1.40;;;11.30;99.90;;;;;;6271188;22;20367;-83
2022/10/19 07:52:19;;;;;;;13.27;1.50;;;11.40;99.90;;;;;;6244322;22;20347;-82
2022/10/19 07:54:48;;;;;;;8.27;1.27;;;11.30;99.90;;;;;;6243529;22;20024;-82
2022/10/19 07:57:14;;;;;;;10.90;1.13;;;11.40;99.90;;;;;;6270700;22;20382;-83
2022/10/19 07:59:40;;;;;;;9.05;1.15;;;11.50;99.90;;;;;;6271178;22;20104;-82
2022/10/19 08:02:13;;;;;;;10.43;1.15;;;11.50;99.90;;;;;;6243296;22;20012;-82
2022/10/19 08:04:39;;;;;;;7.23;1.67;;;11.60;99.90;;;;;;6244181;22;20058;-82
2022/10/19 08:07:04;;;;;;;12.63;1.15;;;11.60;99.90;;;;;;6244393;22;20065;-82
2022/10/19 08:09:30;;;;;;;7.47;1.42;;;11.60;99.90;;;;;;6271368;22;20012;-82
2022/10/19 08:11:56;;;;;;;6.22;1.00;;;11.70;99.90;;;;;;6242634;22;20039;-82
2022/10/19 08:14:21;;;;;;;8.43;1.40;;;11.70;99.90;;;;;;6269009;22;20023;-82
2022/10/19 08:16:47;;;;;;;9.23;1.17;;;11.80;99.90;;;;;;6270041;22;20372;-83
2022/10/19 08:19:14;;;;;;;8.48;1.73;;;11.80;99.90;;;;;;6269522;22;20061;-82
2022/10/19 08:21:42;;;;;;;6.18;1.00;;;11.90;99.90;;;;;;6244191;22;20015;-82
2022/10/19 08:24:10;;;;;;;11.48;0.95;;;11.90;99.90;;;;;;6272195;22;20023;-82
2022/10/19 08:26:37;;;;;;;9.50;1.15;;;11.90;99.90;;;;;;6271228;22;20035;-83
2022/10/19 08:29:14;;;;;;;9.20;1.40;;;12.00;99.90;;;;;;6272336;22;20379;-82
2022/10/19 08:31:41;;;;;;;14.75;1.58;;;12.00;99.90;;;;;;6271546;22;20016;-83
2022/10/19 08:34:07;;;;;;;9.95;1.30;;;12.10;99.90;;;;;;6218517;22;20016;-83
2022/10/19 08:36:34;;;;;;;9.52;1.38;;;12.20;99.90;;;;;;6244974;22;20055;-83
2022/10/19 08:39:01;;;;;;;7.93;1.00;;;12.30;99.90;;;;;;6244698;22;20050;-82
2022/10/19 08:41:58;;;;;;;10.55;1.42;;;12.30;99.90;;;;;;6244393;22;20037;-83
2022/10/19 08:44:54;;;;;;;10.75;1.17;;;12.40;99.90;;;;;;6244622;22;20055;-83
2022/10/19 08:47:52;;;;;;;9.23;1.20;;;12.40;99.90;;;;;;6244457;22;20087;-82
2022/10/19 08:50:34;;;;;;;8.70;1.17;;;12.50;99.90;;;;;;6244952;22;20016;-82
2022/10/19 08:53:06;;;;;;;10.73;1.52;;;12.50;99.90;;;;;;6244594;22;20120;-83
2022/10/19 08:55:56;;;;;;;8.43;1.50;;;12.60;99.90;;;;;;6244329;22;20386;-82
2022/10/19 08:58:28;;;;;;;13.98;2.67;;;12.60;99.90;;;;;;6273515;22;20047;-82
2022/10/19 09:01:19;;;;;;;7.28;1.10;;;12.70;99.90;;;;;;6221478;22;20074;-82
2022/10/19 09:03:57;;;;;;;12.70;1.38;;;12.70;99.90;;;;;;6246809;22;20019;-82
2022/10/19 09:06:36;;;;;;;16.15;1.55;;;12.80;99.90;;;;;;6246776;22;20051;-82
2022/10/19 09:09:03;;;;;;;10.90;1.75;;;12.80;99.90;;;;;;6246584;22;20463;-83
2022/10/19 09:11:34;;;;;;;12.10;1.10;;;12.80;99.90;;;;;;6245789;22;20594;-82
2022/10/19 09:14:24;;;;;;;8.50;1.30;;;12.90;99.90;;;;;;6245983;22;20068;-82
2022/10/19 09:16:50;;;;;;;9.10;1.10;;;12.90;99.90;;;;;;6195592;22;20068;-82
2022/10/19 09:19:24;;;;;;;7.05;1.08;;;12.90;99.90;;;;;;6246356;22;20091;-82
2022/10/19 09:21:55;;;;;;;;;;;12.90;99.90;;;;;;6247512;22;20011;-82
2022/10/19 09:25:15;;;;;;;9.52;1.20;;;12.90;99.90;;;;;;6273204;22;19911;-83
2022/10/19 09:27:44;;;;;;;9.60;1.63;;;12.90;99.90;;;;;;6095778;23;20127;-82
2022/10/19 09:30:16;;;;;;;8.30;0.95;;;13.00;99.90;;;;;;6095368;23;20022;-82
2022/10/19 09:32:42;;;;;;;9.40;1.08;;;13.00;99.90;;;;;;6071668;23;20030;-83
2022/10/19 09:35:19;;;;;;;9.50;1.65;;;13.00;99.90;;;;;;6119445;23;20025;-82
2022/10/19 09:37:47;;;;;;;10.32;1.20;;;13.10;99.90;;;;;;6095824;23;20085;-82
2022/10/19 09:40:26;;;;;;;8.38;0.90;;;13.10;99.90;;;;;;6095564;23;20053;-82
2022/10/19 09:43:12;;;;;;;8.55;1.48;;;13.10;99.90;;;;;;6120226;23;20017;-82
2022/10/19 09:45:59;;;;;;;8.05;1.58;;;13.20;99.90;;;;;;6095817;23;20081;-83
2022/10/19 09:48:27;;;;;;;6.68;0.88;;;13.20;99.90;;;;;;6120395;23;20037;-82
2022/10/19 09:50:59;;;;;;;8.35;1.25;;;13.20;99.90;;;;;;6071881;23;20343;-83
2022/10/19 09:53:25;;;;;;;6.80;0.95;;;13.20;99.90;;;;;;6095682;23;20026;-83
2022/10/19 09:56:15;;;;;;;8.45;1.20;;;13.20;99.90;;;;;;6095592;23;20029;-83
2022/10/19 09:58:47;;;;;;;8.25;1.40;;;13.30;99.90;;;;;;6119644;23;20013;-83
2022/10/19 10:01:30;;;;;;;10.65;0.90;;;13.30;99.90;;;;;;6143535;22;20030;-82
2022/10/19 10:04:16;;;;;;;10.40;1.05;;;13.40;99.90;;;;;;6273382;22;20012;-83
2022/10/19 10:06:45;;;;;;;7.15;0.90;;;13.40;99.90;;;;;;6273466;22;20812;-82
2022/10/19 10:09:21;;;;;;;8.75;1.00;;;13.40;99.90;;;;;;6245108;22;20023;-82
2022/10/19 10:11:49;;;;;;;9.38;1.35;;;13.50;99.90;;;;;;6246007;22;20019;-83
2022/10/19 10:14:29;;;;;;;8.85;1.10;;;13.50;99.90;;;;;;6272812;22;20091;-83
2022/10/19 10:17:03;;;;;;;10.43;1.60;;;13.50;99.90;;;;;;6272685;22;20041;-82
2022/10/19 10:19:31;;;;;;;9.43;1.40;;;13.50;99.90;;;;;;6246510;22;20011;-84
2022/10/19 10:21:58;;;;;;;10.02;1.65;;;13.60;99.90;;;;;;6272938;22;20011;-83
2022/10/19 10:24:25;;;;;;;5.82;1.08;;;13.60;99.90;;;;;;6272552;22;20455;-83
2022/10/19 10:26:54;;;;;;;9.48;1.30;;;13.70;99.90;;;;;;6245844;22;20068;-84
2022/10/19 10:29:31;;;;;;;8.80;1.40;;;13.70;99.90;;;;;;6245754;22;20054;-83
2022/10/19 10:32:15;;;;;;;6.75;0.90;;;13.70;99.90;;;;;;6245896;22;20023;-84
2022/10/19 10:35:02;;;;;;;10.65;1.00;;;13.80;99.90;;;;;;6272680;22;20023;-83
2022/10/19 10:37:40;;;;;;;7.55;1.00;;;13.80;99.90;;;;;;6272466;22;20019;-83
2022/10/19 10:40:29;;;;;;;9.35;1.35;;;13.80;99.90;;;;;;6273184;22;20448;-83
2022/10/19 10:43:07;;;;;;;8.30;1.17;;;13.80;99.90;;;;;;6245722;22;20030;-84
2022/10/19 10:45:41;;;;;;;9.13;0.80;;;13.90;99.90;;;;;;6246085;22;20008;-83
2022/10/19 10:48:15;;;;;;;6.28;1.10;;;13.80;99.90;;;;;;6273194;22;20012;-83
2022/10/19 10:50:42;;;;;;;7.47;1.10;;;13.90;99.90;;;;;;6244810;22;20061;-83
2022/10/19 10:53:30;;;;;;;8.18;1.00;;;13.90;99.90;;;;;;6273341;22;20007;-84
2022/10/19 10:55:56;;;;;;;5.65;0.88;;;14.00;99.90;;;;;;6220297;22;20048;-83
2022/10/19 10:58:46;;;;;;;9.73;0.88;;;14.00;99.90;;;;;;6245839;22;20077;-84
2022/10/19 11:01:21;;;;;;;9.93;1.10;;;14.10;99.90;;;;;;6245934;22;20043;-84
2022/10/19 11:04:13;;;;;;;8.57;0.98;;;14.10;99.90;;;;;;6272614;22;20020;-84
2022/10/19 11:06:46;;;;;;;5.70;1.30;;;14.10;99.90;;;;;;6251351;22;20015;-83
2022/10/19 11:09:22;;;;;;;7.13;0.70;;;14.20;99.90;;;;;;6220404;22;20047;-83
2022/10/19 11:11:49;;;;;;;7.65;1.00;;;14.20;99.90;;;;;;6244827;22;20455;-83
2022/10/19 11:14:35;;;;;;;6.35;0.98;;;14.20;99.90;;;;;;6244608;22;20341;-83
2022/10/19 11:17:10;;;;;;;5.50;0.80;;;14.30;99.90;;;;;;6244784;22;20069;-83
2022/10/19 11:19:41;;;;;;;11.60;1.42;;;14.30;99.90;;;;;;6244387;22;20062;-83
2022/10/19 11:22:29;;;;;;;11.45;1.50;;;14.30;99.90;;;;;;6245245;22;20011;-83
2022/10/19 11:25:20;;;;;;;7.10;1.35;;;14.40;99.90;;;;;;6244756;22;20482;-83
2022/10/19 11:28:13;;;;;;;6.63;1.25;;;14.50;99.90;;;;;;6244711;22;20062;-83
2022/10/19 11:31:13;;;;;;;10.23;2.05;;;14.50;99.90;;;;;;6274696;22;20015;-86
2022/10/19 11:33:54;;;;;;;10.02;1.58;;;14.60;99.90;;;;;;6271348;22;20023;-83
2022/10/19 11:36:28;;;;;;;8.02;1.17;;;14.60;99.90;;;;;;6270884;22;20015;-83
2022/10/19 11:39:06;;;;;;;9.43;1.50;;;14.50;99.90;;;;;;6244426;22;20047;-83
2022/10/19 11:41:47;;;;;;;8.68;1.70;;;14.50;99.90;;;;;;6244271;22;20035;-83
2022/10/19 11:44:37;;;;;;;7.28;2.30;;;14.50;99.90;;;;;;6244464;22;20053;-83
2022/10/19 11:47:28;;;;;;;10.75;1.23;;;14.60;99.90;;;;;;6272089;22;20398;-84
2022/10/19 11:50:05;;;;;;;6.03;1.35;;;14.80;99.90;;;;;;6244261;22;20073;-82
2022/10/19 11:52:57;;;;;;;7.50;1.63;;;15.00;99.90;;;;;;6272249;22;20050;-83
2022/10/19 11:55:48;;;;;;;11.10;1.35;;;15.20;99.90;;;;;;6271727;22;20015;-81
2022/10/19 11:58:30;;;;;;;10.18;2.17;;;15.30;99.90;;;;;;6271682;22;20015;-82
2022/10/19 12:01:22;;;;;;;7.40;1.42;;;15.30;99.90;;;;;;6271819;22;20012;-81
2022/10/19 12:04:00;;;;;;;6.13;1.48;;;15.50;99.90;;;;;;6223773;22;20478;-82
2022/10/19 12:06:46;;;;;;;7.82;1.42;;;15.50;99.90;;;;;;6271564;22;20012;-82
2022/10/19 12:09:12;;;;;;;7.45;1.33;;;15.70;99.90;;;;;;6243142;22;20019;-82
2022/10/19 12:12:02;;;;;;;7.78;1.17;;;15.80;99.90;;;;;;6244173;22;20379;-81
2022/10/19 12:14:35;;;;;;;6.40;1.38;;;15.80;99.90;;;;;;6244442;22;20020;-81
2022/10/19 12:17:07;;;;;;;7.43;1.15;;;16.10;99.90;;;;;;6219442;22;20065;-82
2022/10/19 12:19:39;;;;;;;8.38;1.67;;;15.80;99.90;;;;;;6243576;22;20057;-81
2022/10/19 12:22:09;;;;;;;7.82;1.42;;;15.70;99.90;;;;;;6244684;22;20052;-81
2022/10/19 12:24:35;;;;;;;7.95;1.20;;;15.70;99.90;;;;;;6244195;22;20054;-81
2022/10/19 12:27:01;;;;;;;6.20;1.00;;;15.60;99.90;;;;;;6271032;22;20336;-81
2022/10/19 12:29:32;;;;;;;6.03;1.40;;;15.50;99.90;;;;;;6271378;22;20089;-82
2022/10/19 12:32:00;;;;;;;9.07;1.15;;;15.30;99.90;;;;;;6246547;22;20024;-81
2022/10/19 12:34:34;;;;;;;10.07;1.33;;;15.10;99.90;;;;;;6273181;22;20008;-80
2022/10/19 12:37:12;;;;;;;9.82;1.48;;;15.00;99.90;;;;;;6245656;22;20055;-81
2022/10/19 12:39:52;;;;;;;8.35;1.25;;;15.00;99.90;;;;;;6245830;22;20020;-81
2022/10/19 12:42:34;;;;;;;6.93;1.20;;;15.10;99.90;;;;;;6245845;22;20092;-81
2022/10/19 12:45:32;;;;;;;9.18;1.00;;;15.20;99.90;;;;;;6273958;22;20069;-81
2022/10/19 12:48:06;;;;;;;4.93;1.00;;;15.30;99.90;;;;;;6220305;22;20424;-81
2022/10/19 12:50:47;;;;;;;6.18;1.10;;;15.30;99.90;;;;;;6274294;22;20459;-81
2022/10/19 12:53:23;;;;;;;10.23;1.00;;;15.10;99.90;;;;;;6246920;22;20027;-82
2022/10/19 12:56:13;;;;;;;6.22;0.75;;;15.10;99.90;;;;;;6273275;22;20026;-82
2022/10/19 12:59:00;;;;;;;6.80;0.80;;;15.20;99.90;;;;;;6221424;22;20090;-82
2022/10/19 13:01:34;;;;;;;6.70;1.23;;;15.40;99.90;;;;;;6246205;22;20331;-82
2022/10/19 13:04:08;;;;;;;4.28;0.70;;;15.50;99.90;;;;;;6247029;22;20506;-82
2022/10/19 13:06:39;;;;;;;7.85;1.55;;;15.60;99.90;;;;;;6221850;22;20400;-82
2022/10/19 13:09:07;;;;;;;6.53;0.70;;;15.60;99.90;;;;;;6246643;22;20019;-82